Time;durP1;ratioP1;P1;durP2;ratioP2;P2;SDS_P1;SDS_P2;PMS_P1;PMS_P2;Temp;Humidity;BMP_temperature;BMP_pressure;BME280_temperature;BME280_humidity;BME280_pressure;Samples;Min_cycle;Max_cycle;Signal;HPM_P1;HPM_P2
2021/01/23 00:02:14;;;;;;;118.75;50.05;;;;;;;3.78;71.13;98482.16;2163478;81;30993;-75
2021/01/23 00:05:16;;;;;;;127.17;55.10;;;;;;;3.77;70.93;98473.83;2169729;81;34085;-76
2021/01/23 00:08:19;;;;;;;140.18;58.90;;;;;;;3.75;70.77;98467.75;2155166;81;30767;-73
2021/01/23 00:11:21;;;;;;;116.08;54.40;;;;;;;3.72;70.70;98459.98;2175399;81;27740;-72
2021/01/23 00:14:23;;;;;;;128.02;53.80;;;;;;;3.68;70.67;98453.97;2183263;81;29765;-73
2021/01/23 00:17:25;;;;;;;131.35;55.45;;;;;;;3.62;70.62;98451.17;2184652;81;31189;-73
2021/01/23 00:20:27;;;;;;;114.65;50.78;;;;;;;3.57;70.61;98452.34;2184664;81;33124;-70
2021/01/23 00:23:29;;;;;;;95.60;43.08;;;;;;;3.51;70.68;98457.48;2148670;81;29167;-74
2021/01/23 00:26:32;;;;;;;94.77;44.15;;;;;;;3.46;71.18;98455.08;2143093;82;27788;-74
2021/01/23 00:29:37;;;;;;;85.92;41.08;;;;;;;3.42;71.00;98444.25;2141210;81;28099;-70
2021/01/23 00:32:40;;;;;;;86.22;39.85;;;;;;;3.39;71.52;98442.23;2161693;81;32154;-73
2021/01/23 00:35:42;;;;;;;85.30;40.10;;;;;;;3.39;71.79;98438.27;2141426;83;33101;-74
2021/01/23 00:38:44;;;;;;;90.28;40.43;;;;;;;3.38;71.79;98421.99;2155196;81;29173;-71
2021/01/23 00:41:47;;;;;;;106.55;52.30;;;;;;;3.36;71.84;98412.78;2166990;81;27666;-71
2021/01/23 00:44:49;;;;;;;96.67;48.55;;;;;;;3.36;72.20;98410.14;2166467;81;29851;-74
2021/01/23 00:47:51;;;;;;;87.27;43.83;;;;;;;3.37;72.40;98407.88;2178764;81;32163;-72
2021/01/23 00:50:53;;;;;;;91.12;44.23;;;;;;;3.32;72.66;98401.51;2166721;81;33116;-72
2021/01/23 00:53:55;;;;;;;109.95;52.75;;;;;;;3.31;72.74;98402.92;2163416;81;29150;-71
2021/01/23 00:56:57;;;;;;;141.12;70.25;;;;;;;3.30;72.65;98396.76;2178760;81;28181;-71
2021/01/23 00:59:59;;;;;;;131.15;64.20;;;;;;;3.30;72.74;98399.41;2178203;81;28881;-70
2021/01/23 01:03:01;;;;;;;98.65;47.50;;;;;;;3.30;72.69;98405.17;2175796;81;31133;-73
2021/01/23 01:06:04;;;;;;;72.32;34.43;;;;;;;3.29;72.86;98410.08;2144064;81;33952;-70
2021/01/23 01:09:06;;;;;;;61.80;33.75;;;;;;;3.28;73.04;98410.53;2141398;83;29230;-71
2021/01/23 01:12:08;;;;;;;63.40;31.85;;;;;;;3.29;73.07;98412.24;2159044;81;27754;-70
2021/01/23 01:15:11;;;;;;;57.33;28.20;;;;;;;3.30;73.22;98428.99;2158537;81;30203;-73
2021/01/23 01:18:13;;;;;;;55.17;29.80;;;;;;;3.31;73.19;98410.86;2147777;81;32144;-72
2021/01/23 01:21:16;;;;;;;56.92;30.90;;;;;;;3.34;73.20;98408.03;2141489;83;33084;-70
2021/01/23 01:24:18;;;;;;;61.30;33.75;;;;;;;3.37;73.03;98395.13;2150575;81;29053;-71
2021/01/23 01:27:20;;;;;;;75.65;37.50;;;;;;;3.38;72.83;98396.37;2179475;81;27765;-74
2021/01/23 01:30:22;;;;;;;80.75;41.88;;;;;;;3.38;72.70;98405.63;2146773;81;28819;-71
2021/01/23 01:33:25;;;;;;;90.30;42.17;;;;;;;3.37;72.53;98400.42;2145179;81;31205;-74
2021/01/23 01:36:26;;;;;;;88.85;41.70;;;;;;;3.34;72.61;98410.68;2135979;81;33164;-75
2021/01/23 01:39:28;;;;;;;79.40;40.08;;;;;;;3.29;72.43;98420.66;2143315;83;29164;-72
2021/01/23 01:42:31;;;;;;;80.47;41.90;;;;;;;3.27;72.50;98422.05;2144295;82;27704;-71
2021/01/23 01:45:33;;;;;;;78.05;39.63;;;;;;;3.25;72.51;98415.13;2151274;81;29123;-74
2021/01/23 01:48:35;;;;;;;77.62;38.60;;;;;;;3.25;72.69;98415.97;2144629;81;31176;-75
2021/01/23 01:51:37;;;;;;;83.35;41.08;;;;;;;3.27;72.85;98409.30;2144147;83;33097;-71
2021/01/23 01:54:39;;;;;;;73.83;38.02;;;;;;;3.31;73.02;98410.86;2155955;81;29173;-73
2021/01/23 01:57:41;;;;;;;73.40;37.83;;;;;;;3.37;73.11;98409.69;2117188;83;27742;-72
2021/01/23 02:00:43;;;;;;;69.07;36.10;;;;;;;3.43;73.17;98408.03;2138405;81;28871;-73
2021/01/23 02:04:15;;;;;;;64.90;34.53;;;;;;;3.50;73.24;98402.83;2163378;81;31225;-71
2021/01/23 02:08:05;;;;;;;64.22;34.70;;;;;;;3.58;73.33;98403.76;2171760;81;33324;-67
2021/01/23 02:11:13;;;;;;;70.35;36.98;;;;;;;3.67;73.33;98400.62;2148231;81;29214;-72
2021/01/23 02:14:54;;;;;;;67.37;35.80;;;;;;;3.74;73.31;98400.70;2154645;81;27668;-73
2021/01/23 02:18:07;;;;;;;66.80;33.98;;;;;;;3.78;73.43;98391.66;2176667;81;29810;-68
2021/01/23 02:21:52;;;;;;;58.33;33.30;;;;;;;3.84;73.49;98387.83;2144192;81;32968;-73
2021/01/23 02:24:55;;;;;;;65.72;33.65;;;;;;;3.90;73.51;98376.05;2177562;81;33150;-71
2021/01/23 02:28:13;;;;;;;57.58;30.85;;;;;;;3.95;73.58;98382.80;2176115;81;29161;-74
2021/01/23 02:31:19;;;;;;;51.15;29.32;;;;;;;4.02;73.66;98374.05;2174818;81;27734;-77
2021/01/23 02:34:25;;;;;;;55.58;29.48;;;;;;;4.10;73.63;98371.86;2136755;81;29027;-79
2021/01/23 02:37:29;;;;;;;55.55;29.77;;;;;;;4.18;73.66;98368.79;2140586;81;32122;-71
2021/01/23 02:40:30;;;;;;;48.85;28.55;;;;;;;4.25;73.61;98365.33;2140362;82;33198;-78
2021/01/23 02:43:34;;;;;;;66.57;35.68;;;;;;;4.31;73.73;98357.02;2166592;81;29178;-70
2021/01/23 02:46:36;;;;;;;54.42;29.82;;;;;;;4.37;73.89;98349.22;2171666;81;27722;-71
2021/01/23 02:49:38;;;;;;;43.38;24.10;;;;;;;4.41;73.98;98346.31;2177580;81;28898;-73
2021/01/23 02:53:18;;;;;;;42.03;23.20;;;;;;;4.44;74.14;98342.62;2177223;81;31127;-72
2021/01/23 02:56:24;;;;;;;39.30;21.00;;;;;;;4.46;74.35;98329.30;2177618;81;33147;-71
2021/01/23 02:59:26;;;;;;;35.45;19.67;;;;;;;4.49;74.44;98322.47;2178138;81;29156;-69
2021/01/23 03:02:28;;;;;;;41.88;20.17;;;;;;;4.52;74.43;98319.64;2147726;81;27729;-68
2021/01/23 03:05:35;;;;;;;42.25;21.30;;;;;;;4.54;74.57;98308.03;2177758;81;29198;-75
2021/01/23 03:08:46;;;;;;;43.35;22.73;;;;;;;4.58;74.51;98283.97;2177021;80;31196;-68
2021/01/23 03:11:48;;;;;;;46.55;24.92;;;;;;;4.58;74.69;98273.36;2177799;81;34121;-67
2021/01/23 03:14:51;;;;;;;44.65;23.50;;;;;;;4.56;74.60;98273.45;2157130;81;29154;-68
2021/01/23 03:17:52;;;;;;;41.58;22.15;;;;;;;4.54;74.79;98264.28;2140400;81;28091;-71
2021/01/23 03:20:54;;;;;;;45.17;22.10;;;;;;;4.52;74.75;98252.91;2140421;83;29033;-69
2021/01/23 03:23:56;;;;;;;43.28;21.82;;;;;;;4.50;75.00;98244.18;2145084;81;32138;-68
2021/01/23 03:26:58;;;;;;;35.45;19.77;;;;;;;4.48;74.96;98247.39;2177516;81;33123;-70
2021/01/23 03:30:00;;;;;;;37.60;20.62;;;;;;;4.46;75.03;98248.43;2178032;81;29061;-68
2021/01/23 03:33:02;;;;;;;44.13;21.17;;;;;;;4.45;75.23;98251.53;2151316;81;27654;-70
2021/01/23 03:36:06;;;;;;;36.80;20.92;;;;;;;4.47;75.18;98252.30;2156730;81;28836;-76
2021/01/23 03:39:08;;;;;;;40.92;21.42;;;;;;;4.48;75.47;98255.80;2151810;81;31147;-75
2021/01/23 03:42:11;;;;;;;44.58;23.67;;;;;;;4.50;75.48;98257.44;2140703;83;33127;-73
2021/01/23 03:45:13;;;;;;;48.23;24.12;;;;;;;4.51;75.35;98259.60;2140714;83;29918;-68
2021/01/23 03:48:15;;;;;;;45.80;23.75;;;;;;;4.55;75.36;98251.86;2160692;81;27941;-72
2021/01/23 03:51:17;;;;;;;47.50;22.50;;;;;;;4.56;75.52;98250.43;2173407;81;29887;-74
2021/01/23 03:54:19;;;;;;;45.30;22.65;;;;;;;4.61;75.50;98264.77;2175118;81;32399;-70
2021/01/23 03:57:21;;;;;;;43.98;21.45;;;;;;;4.65;75.63;98262.78;2140475;83;33110;-68
2021/01/23 04:00:23;;;;;;;38.70;21.37;;;;;;;4.67;75.54;98246.31;2132869;81;29266;-72
2021/01/23 04:03:26;;;;;;;36.65;21.68;;;;;;;4.71;75.54;98255.81;2139345;81;27707;-73
2021/01/23 04:06:28;;;;;;;38.60;22.60;;;;;;;4.76;75.85;98240.95;2140526;83;28829;-67
2021/01/23 04:09:32;;;;;;;44.15;23.32;;;;;;;4.78;75.55;98250.51;2167185;81;31139;-74
2021/01/23 04:12:35;;;;;;;44.98;24.67;;;;;;;4.83;75.44;98235.19;2177816;81;33131;-70
2021/01/23 04:15:38;;;;;;;43.23;24.67;;;;;;;4.87;75.60;98229.21;2169457;81;29171;-73
2021/01/23 04:18:41;;;;;;;42.43;24.75;;;;;;;4.87;75.57;98227.89;2152827;81;27627;-70
2021/01/23 04:21:43;;;;;;;43.45;23.83;;;;;;;4.86;75.48;98219.09;2166744;81;29047;-72
2021/01/23 04:24:46;;;;;;;45.15;24.35;;;;;;;4.87;75.51;98193.39;2171174;80;31615;-69
2021/01/23 04:27:48;;;;;;;40.60;22.22;;;;;;;4.88;75.50;98180.52;2142747;81;33129;-67
2021/01/23 04:30:50;;;;;;;38.78;21.55;;;;;;;4.90;75.46;98181.73;2144244;82;29617;-71
2021/01/23 04:33:51;;;;;;;44.55;21.20;;;;;;;4.94;75.49;98177.95;2181019;81;28293;-68
2021/01/23 04:36:53;;;;;;;37.75;19.62;;;;;;;4.96;75.53;98178.27;2181573;81;28883;-68
2021/01/23 04:39:56;;;;;;;41.45;21.12;;;;;;;5.01;75.50;98174.00;2167056;81;31499;-72
2021/01/23 04:42:58;;;;;;;33.65;19.40;;;;;;;5.03;75.88;98156.19;2143689;83;34398;-70
2021/01/23 04:46:00;;;;;;;37.55;20.82;;;;;;;5.02;75.79;98158.45;2142232;83;29167;-67
2021/01/23 04:49:03;;;;;;;36.60;19.15;;;;;;;5.05;75.75;98153.42;2144023;81;27803;-72
2021/01/23 04:52:08;;;;;;;40.12;19.95;;;;;;;5.04;75.70;98139.31;2144164;83;28826;-72
2021/01/23 04:55:11;;;;;;;38.25;20.37;;;;;;;5.08;75.64;98152.75;2167331;81;31132;-68
2021/01/23 04:58:13;;;;;;;38.13;21.87;;;;;;;5.10;75.66;98152.67;2181536;81;33158;-68
2021/01/23 05:01:15;;;;;;;40.90;21.90;;;;;;;5.13;75.71;98152.48;2176104;81;28963;-74
2021/01/23 05:04:17;;;;;;;46.28;23.92;;;;;;;5.17;75.85;98146.02;2151998;81;27833;-69
2021/01/23 05:07:28;;;;;;;41.92;21.80;;;;;;;5.21;75.79;98145.38;2172674;81;28804;-67
2021/01/23 05:10:30;;;;;;;40.03;21.85;;;;;;;5.23;75.76;98127.06;2179569;81;31132;-72
2021/01/23 05:13:32;;;;;;;38.92;23.25;;;;;;;5.28;75.86;98114.82;2178385;81;33986;-68
2021/01/23 05:16:35;;;;;;;41.33;23.70;;;;;;;5.32;75.85;98103.91;2144048;83;30170;-68
2021/01/23 05:19:43;;;;;;;44.93;23.18;;;;;;;5.34;75.80;98103.83;2144161;83;27661;-73
2021/01/23 05:22:49;;;;;;;50.17;25.88;;;;;;;5.36;75.86;98091.30;2116929;83;28900;-71
2021/01/23 05:25:55;;;;;;;41.13;23.12;;;;;;;5.39;75.87;98088.92;2154988;81;31640;-72
2021/01/23 05:29:10;;;;;;;109.45;57.60;;;;;;;5.41;76.01;98088.34;2138926;81;33115;-67
2021/01/23 05:32:17;;;;;;;52.98;29.02;;;;;;;5.42;75.98;98078.95;2141453;81;29144;-69
2021/01/23 05:35:19;;;;;;;58.08;32.23;;;;;;;5.42;76.05;98069.65;2141481;83;27731;-74
2021/01/23 05:38:38;;;;;;;66.10;35.35;;;;;;;5.44;76.12;98076.20;2149298;81;28899;-67
2021/01/23 05:41:40;;;;;;;56.30;31.87;;;;;;;5.46;76.11;98073.82;2142858;81;32044;-70
2021/01/23 05:44:46;;;;;;;67.97;33.00;;;;;;;5.47;76.09;98071.55;2141587;81;34460;-73
2021/01/23 05:47:47;;;;;;;61.02;32.70;;;;;;;5.50;76.22;98060.34;2136426;83;29163;-67
2021/01/23 05:50:51;;;;;;;60.73;33.67;;;;;;;5.48;76.08;98058.64;2141488;81;27779;-72
2021/01/23 05:53:53;;;;;;;46.77;25.17;;;;;;;5.50;76.36;98050.56;2168925;81;29534;-69
2021/01/23 05:56:56;;;;;;;51.55;27.10;;;;;;;5.51;76.50;98052.77;2178565;81;32128;-73
2021/01/23 05:59:58;;;;;;;43.10;24.52;;;;;;;5.51;76.20;98038.99;2154055;81;33210;-68
2021/01/23 06:03:01;;;;;;;49.60;25.10;;;;;;;5.52;76.37;98038.04;2164200;81;30042;-71
2021/01/23 06:06:04;;;;;;;45.05;23.12;;;;;;;5.54;76.27;98037.47;2169382;81;27594;-69
2021/01/23 06:09:09;;;;;;;41.08;22.32;;;;;;;5.58;76.38;98036.78;2176372;81;28891;-74
2021/01/23 06:12:37;;;;;;;38.05;23.22;;;;;;;5.59;76.54;98026.53;2073194;84;31163;-73
2021/01/23 06:15:41;;;;;;;46.83;26.33;;;;;;;5.59;76.35;98022.09;2063657;84;34468;-69
2021/01/23 06:18:43;;;;;;;46.68;24.30;;;;;;;5.60;76.39;98022.92;2076702;85;30151;-67
2021/01/23 06:21:48;;;;;;;47.78;29.92;;;;;;;5.64;76.49;98020.45;2074977;85;27635;-74
2021/01/23 06:24:52;;;;;;;50.67;26.35;;;;;;;5.65;76.52;98014.64;2075983;84;29314;-71
2021/01/23 06:27:54;;;;;;;44.77;24.55;;;;;;;5.67;76.62;98017.59;2093751;84;31149;-68
2021/01/23 06:30:56;;;;;;;47.10;25.23;;;;;;;5.68;76.55;98016.64;2109742;83;33093;-73
2021/01/23 06:33:59;;;;;;;46.48;24.65;;;;;;;5.71;76.61;98018.23;2121780;83;29118;-74
2021/01/23 06:37:39;;;;;;;52.38;28.80;;;;;;;5.72;76.65;98015.47;2091492;83;27688;-74
2021/01/23 06:40:41;;;;;;;42.75;24.20;;;;;;;5.76;76.55;98005.50;2085439;85;28897;-68
2021/01/23 06:44:17;;;;;;;47.55;25.30;;;;;;;5.81;76.50;98013.16;2086010;85;31226;-73
2021/01/23 06:47:19;;;;;;;46.80;24.20;;;;;;;5.86;76.46;98007.07;2087102;83;33102;-66
2021/01/23 06:50:39;;;;;;;49.13;27.22;;;;;;;5.90;76.49;97997.45;2085884;85;29174;-72
2021/01/23 06:53:42;;;;;;;46.95;25.05;;;;;;;5.94;76.39;97996.76;2086563;84;27787;-68
2021/01/23 06:56:48;;;;;;;43.13;22.65;;;;;;;5.99;76.42;97989.33;2109145;83;29275;-73
2021/01/23 06:59:51;;;;;;;50.15;22.75;;;;;;;6.04;76.45;97989.87;2086089;84;31569;-74
2021/01/23 07:02:55;;;;;;;45.85;25.95;;;;;;;6.11;76.39;97987.68;2109865;83;34057;-68
2021/01/23 07:06:02;;;;;;;41.25;23.42;;;;;;;6.14;76.24;97986.61;2095169;83;35105;-72
2021/01/23 07:09:05;;;;;;;41.60;22.70;;;;;;;6.18;76.27;97988.94;2085567;85;27682;-72
2021/01/23 07:12:06;;;;;;;41.10;22.50;;;;;;;6.20;76.17;97983.54;2086023;83;29754;-70
2021/01/23 07:15:29;;;;;;;54.85;28.35;;;;;;;6.20;76.13;97983.05;2091172;83;31179;-74
2021/01/23 07:18:33;;;;;;;50.35;25.08;;;;;;;6.21;76.13;97979.43;2121948;82;32971;-71
2021/01/23 07:21:38;;;;;;;46.10;25.27;;;;;;;6.25;76.10;97976.07;2090830;82;29091;-73
2021/01/23 07:24:45;;;;;;;38.88;22.00;;;;;;;6.28;76.00;97973.70;2070441;83;27798;-76
2021/01/23 07:27:46;;;;;;;42.20;22.32;;;;;;;6.31;75.96;97958.37;2085950;83;28837;-72
2021/01/23 07:30:49;;;;;;;40.48;20.77;;;;;;;6.35;75.95;97962.98;2104711;83;31078;-74
2021/01/23 07:33:52;;;;;;;39.10;20.02;;;;;;;6.40;75.92;97956.88;2087185;83;33867;-76
2021/01/23 07:36:54;;;;;;;37.67;19.70;;;;;;;6.45;75.83;97959.20;2089311;83;29968;-76
2021/01/23 07:39:56;;;;;;;38.10;20.27;;;;;;;6.46;75.74;97959.08;2121594;82;27719;-72
2021/01/23 07:43:02;;;;;;;43.80;20.97;;;;;;;6.49;75.74;97951.39;2107772;83;28782;-73
2021/01/23 07:46:03;;;;;;;;;;;;;;;6.53;75.75;97948.39;2124264;83;31194;-74
2021/01/23 07:49:07;;;;;;;44.03;19.82;;;;;;;6.60;75.73;97943.98;2121326;83;33940;-70
2021/01/23 07:52:10;;;;;;;40.13;19.80;;;;;;;6.64;75.72;97945.44;2105915;82;28357;-73
2021/01/23 07:55:13;;;;;;;41.37;21.40;;;;;;;6.69;75.68;97943.30;2086402;85;27704;-72
2021/01/23 07:58:16;;;;;;;43.73;22.22;;;;;;;6.77;75.69;97937.42;2085458;83;28757;-73
2021/01/23 08:01:21;;;;;;;48.17;21.65;;;;;;;6.84;75.76;97932.05;2091774;83;31246;-70
2021/01/23 08:04:31;;;;;;;41.88;20.68;;;;;;;6.92;75.68;97934.98;2101785;83;33107;-74
2021/01/23 08:07:38;;;;;;;37.35;20.75;;;;;;;7.00;75.66;97931.75;2086098;84;29275;-76
2021/01/23 08:10:40;;;;;;;34.98;19.32;;;;;;;7.08;75.68;97925.41;2087579;83;27641;-75
2021/01/23 08:13:43;;;;;;;32.15;17.07;;;;;;;7.18;75.66;97922.05;2121841;83;28918;-74
2021/01/23 08:16:56;;;;;;;33.40;17.98;;;;;;;7.25;75.59;97917.48;2121749;83;32115;-71
2021/01/23 08:19:58;;;;;;;35.00;17.65;;;;;;;7.33;75.55;97908.92;2102693;83;33082;-75
2021/01/23 08:23:11;;;;;;;43.23;18.98;;;;;;;7.40;75.50;97909.30;2118725;83;29167;-67
2021/01/23 08:26:18;;;;;;;34.27;16.73;;;;;;;7.48;75.60;97905.59;2121931;83;27649;-76
2021/01/23 08:29:22;;;;;;;31.37;15.38;;;;;;;7.57;75.54;97898.72;2115019;83;29906;-71
2021/01/23 08:32:27;;;;;;;29.52;13.50;;;;;;;7.67;75.57;97895.70;2105053;83;31608;-72
2021/01/23 08:35:29;;;;;;;;;;;;;;;7.78;75.53;97890.05;2113744;84;33104;-75
2021/01/23 08:38:31;;;;;;;19.65;9.75;;;;;;;7.91;75.54;97894.79;2111091;84;28449;-76
2021/01/23 08:41:56;;;;;;;24.75;9.88;;;;;;;8.03;75.47;97884.96;2097690;84;27576;-69
2021/01/23 08:44:58;;;;;;;19.77;8.83;;;;;;;8.19;75.39;97885.95;1988543;89;29691;-70
2021/01/23 08:48:00;;;;;;;21.50;9.40;;;;;;;8.33;75.21;97884.88;2023185;87;31678;-77
2021/01/23 08:51:03;;;;;;;22.35;8.70;;;;;;;8.46;75.11;97885.58;2017933;88;33185;-75
2021/01/23 08:54:05;;;;;;;21.48;9.73;;;;;;;8.57;74.86;97879.42;1988976;86;29166;-74
2021/01/23 08:57:07;;;;;;;18.05;8.43;;;;;;;8.67;74.73;97874.19;1984974;89;27823;-77
2021/01/23 09:00:13;;;;;;;15.55;7.22;;;;;;;8.78;74.55;97875.95;2000857;87;28819;-76
2021/01/23 09:03:15;;;;;;;21.02;8.23;;;;;;;8.88;74.39;97875.59;2022675;87;31154;-72
2021/01/23 09:06:17;;;;;;;12.03;7.15;;;;;;;8.98;74.17;97871.67;2024840;87;33119;-75
2021/01/23 09:09:23;;;;;;;13.53;6.45;;;;;;;9.05;73.93;97876.85;2073096;84;29169;-75
2021/01/23 09:12:24;;;;;;;11.45;6.65;;;;;;;9.14;73.83;97881.92;2067468;84;27726;-75
2021/01/23 09:15:27;;;;;;;14.10;7.05;;;;;;;9.20;73.76;97881.42;2100318;84;28838;-75
2021/01/23 09:18:30;;;;;;;18.52;7.75;;;;;;;9.28;73.54;97884.79;2096014;84;31280;-73
2021/01/23 09:21:32;;;;;;;14.45;7.50;;;;;;;9.35;73.38;97881.95;2090668;84;34081;-69
2021/01/23 09:24:34;;;;;;;19.62;8.40;;;;;;;9.42;73.23;97884.48;2100877;83;29163;-69
2021/01/23 09:27:40;;;;;;;15.90;7.47;;;;;;;9.49;73.08;97882.13;2125928;83;27647;-76
2021/01/23 09:30:42;;;;;;;15.20;6.47;;;;;;;9.54;72.81;97876.39;2100651;83;29746;-68
2021/01/23 09:33:44;;;;;;;12.73;6.78;;;;;;;9.58;72.91;97884.52;2036063;87;31163;-76
2021/01/23 09:36:46;;;;;;;14.87;6.50;;;;;;;9.63;72.76;97886.80;2025266;87;34125;-76
2021/01/23 09:39:49;;;;;;;16.75;6.92;;;;;;;9.68;72.67;97885.92;2027764;87;29223;-72
2021/01/23 09:42:51;;;;;;;12.13;6.42;;;;;;;9.76;72.70;97872.77;2036029;85;27832;-68
2021/01/23 09:45:54;;;;;;;19.73;11.55;;;;;;;9.85;72.49;97876.45;2038992;87;28905;-73
2021/01/23 09:48:56;;;;;;;50.28;30.23;;;;;;;9.94;72.48;97870.33;2068772;86;31163;-73
2021/01/23 09:51:58;;;;;;;26.48;12.43;;;;;;;10.03;72.07;97872.69;2046441;86;34045;-70
2021/01/23 09:55:00;;;;;;;81.80;51.48;;;;;;;10.12;71.92;97873.72;2042190;87;30011;-75
2021/01/23 09:58:03;;;;;;;21.82;10.70;;;;;;;10.21;71.90;97867.55;2041472;87;27769;-74
2021/01/23 10:01:05;;;;;;;23.60;13.35;;;;;;;10.31;71.64;97863.11;2043993;85;29841;-72
2021/01/23 10:04:07;;;;;;;28.75;18.60;;;;;;;10.42;71.53;97860.86;2070917;85;31154;-69
2021/01/23 10:07:12;;;;;;;20.50;11.18;;;;;;;10.52;71.06;97861.37;2046941;87;33534;-74
2021/01/23 10:10:14;;;;;;;109.60;60.25;;;;;;;10.58;70.78;97858.16;2046947;87;29181;-70
2021/01/23 10:13:16;;;;;;;40.55;23.57;;;;;;;10.65;70.84;97861.96;2065493;85;27772;-73
2021/01/23 10:16:18;;;;;;;18.15;10.15;;;;;;;10.71;70.53;97845.36;2071263;85;29273;-72
2021/01/23 10:19:20;;;;;;;14.78;8.08;;;;;;;10.78;70.59;97849.66;2071136;85;31152;-73
2021/01/23 10:22:22;;;;;;;18.87;11.57;;;;;;;10.88;70.48;97853.70;2071287;85;33145;-70
2021/01/23 10:25:24;;;;;;;18.90;11.15;;;;;;;10.96;70.13;97851.66;2046162;85;30137;-70
2021/01/23 10:28:29;;;;;;;13.55;6.62;;;;;;;11.04;70.07;97851.32;2046148;85;27666;-73
2021/01/23 10:31:31;;;;;;;11.85;6.05;;;;;;;11.15;69.97;97846.32;2041430;85;28837;-73
2021/01/23 10:34:33;;;;;;;10.00;6.85;;;;;;;11.22;69.74;97843.41;2036621;87;32067;-67
2021/01/23 10:37:35;;;;;;;9.30;6.62;;;;;;;11.31;69.50;97840.38;2037457;87;33127;-72
2021/01/23 10:40:38;;;;;;;14.68;9.53;;;;;;;11.38;68.97;97835.29;2037512;87;29177;-73
2021/01/23 10:43:41;;;;;;;9.35;5.80;;;;;;;11.45;69.02;97837.77;2055877;85;27892;-73
2021/01/23 10:46:43;;;;;;;8.45;4.62;;;;;;;11.51;68.84;97839.86;2031462;87;28848;-72
2021/01/23 10:49:49;;;;;;;8.93;4.17;;;;;;;11.63;68.37;97833.02;2000948;89;31170;-75
2021/01/23 10:52:51;;;;;;;9.93;5.20;;;;;;;11.70;67.82;97821.56;2022344;86;33125;-71
2021/01/23 10:55:54;;;;;;;9.50;4.62;;;;;;;11.77;67.98;97821.83;2031385;87;29243;-70
2021/01/23 10:59:01;;;;;;;8.88;4.87;;;;;;;11.83;67.66;97817.20;2031373;87;27672;-69
2021/01/23 11:02:00;;;;;;;7.85;3.72;;;;;;;11.92;67.54;97814.14;2042605;86;29640;-70
2021/01/23 11:05:02;;;;;;;7.67;4.33;;;;;;;12.02;67.41;97822.70;2057893;86;32434;-74
2021/01/23 11:08:05;;;;;;;8.43;4.62;;;;;;;12.10;66.99;97829.02;2063470;86;32240;-72
2021/01/23 11:11:07;;;;;;;10.45;7.75;;;;;;;12.16;67.02;97823.05;2037040;86;29169;-72
2021/01/23 11:14:09;;;;;;;16.00;10.43;;;;;;;12.21;66.47;97815.05;2031648;87;27780;-68
2021/01/23 11:17:11;;;;;;;8.68;5.17;;;;;;;12.18;65.86;97811.31;2032841;87;28821;-71
2021/01/23 11:20:17;;;;;;;9.85;5.87;;;;;;;12.08;65.85;97812.73;2094656;84;27693;-73
2021/01/23 11:23:19;;;;;;;9.17;6.20;;;;;;;11.95;66.00;97809.83;2095914;84;33099;-69
2021/01/23 11:26:22;;;;;;;9.28;4.87;;;;;;;11.86;66.04;97809.38;2083718;84;28348;-73
2021/01/23 11:29:24;;;;;;;8.28;4.37;;;;;;;11.76;65.80;97825.97;2050920;83;27786;-73
2021/01/23 11:32:29;;;;;;;9.25;5.55;;;;;;;11.53;65.86;97829.84;2101717;83;28828;-72
2021/01/23 11:35:31;;;;;;;10.18;4.25;;;;;;;11.53;65.86;97829.84;2083508;84;31410;-71
2021/01/23 11:38:34;;;;;;;8.33;4.47;;;;;;;11.43;66.08;97845.10;2095301;84;33111;-73
2021/01/23 11:41:39;;;;;;;8.53;4.37;;;;;;;11.35;66.09;97849.84;2095547;83;29261;-71
2021/01/23 11:44:41;;;;;;;30.15;12.53;;;;;;;11.27;65.99;97845.66;2094879;84;27649;-73
2021/01/23 11:47:43;;;;;;;55.70;18.75;;;;;;;11.19;66.06;97855.75;2065371;84;29703;-72
2021/01/23 11:50:45;;;;;;;48.48;16.30;;;;;;;11.14;66.23;97853.14;2095283;83;31160;-75
2021/01/23 11:53:48;;;;;;;36.73;14.03;;;;;;;11.07;66.04;97855.06;2091762;83;33201;-75
2021/01/23 11:56:51;;;;;;;51.55;17.32;;;;;;;10.99;65.91;97858.09;2092673;84;28911;-69
2021/01/23 11:59:55;;;;;;;39.30;15.58;;;;;;;10.90;65.66;97869.14;2092105;84;27605;-71
2021/01/23 12:02:57;;;;;;;21.87;10.68;;;;;;;10.82;65.85;97877.87;2049718;85;28835;-75
2021/01/23 12:05:59;;;;;;;22.15;10.85;;;;;;;10.76;65.64;97870.38;2053688;86;31380;-69
2021/01/23 12:09:04;;;;;;;;;;;;;;;10.72;65.31;97878.32;2057468;85;34124;-74
2021/01/23 12:12:08;;;;;;;44.93;19.15;;;;;;;10.72;64.76;97881.00;2041069;87;29181;-72
2021/01/23 12:15:14;;;;;;;25.80;13.53;;;;;;;10.77;64.94;97880.94;2040724;87;27763;-73
2021/01/23 12:18:16;;;;;;;20.62;12.05;;;;;;;10.87;64.67;97874.77;2051911;85;29777;-75
2021/01/23 12:21:19;;;;;;;19.85;10.28;;;;;;;10.96;64.02;97878.45;2053786;86;31155;-73
2021/01/23 12:24:22;;;;;;;16.35;10.35;;;;;;;11.01;63.30;97885.56;2051550;85;33213;-75
2021/01/23 12:27:36;;;;;;;70.37;47.62;;;;;;;11.06;63.23;97890.02;2248626;77;32182;-75
2021/01/23 12:30:38;;;;;;;32.15;21.77;;;;;;;11.00;62.82;97894.10;2228666;79;27684;-76
2021/01/23 12:33:40;;;;;;;38.95;22.65;;;;;;;10.92;62.67;97902.00;2227920;79;28900;-70
2021/01/23 12:36:42;;;;;;;22.30;13.15;;;;;;;10.81;62.47;97925.72;2228592;79;32018;-79
2021/01/23 12:39:44;;;;;;;19.48;12.00;;;;;;;10.68;62.53;97943.36;2228489;79;33103;-75
2021/01/23 12:42:46;;;;;;;25.77;15.58;;;;;;;10.55;62.47;97943.58;2203770;79;28465;-75
2021/01/23 12:45:48;;;;;;;17.57;12.00;;;;;;;10.45;62.54;97957.43;2217165;79;27689;-72
2021/01/23 12:48:51;;;;;;;19.85;13.53;;;;;;;10.42;62.62;97957.22;2219498;80;29766;-75
2021/01/23 12:51:53;;;;;;;25.55;16.42;;;;;;;10.35;62.40;97942.63;2168236;81;31257;-76
2021/01/23 12:54:57;;;;;;;15.18;10.45;;;;;;;10.28;62.60;97968.21;2129325;82;33984;-76
2021/01/23 12:58:01;;;;;;;14.70;10.13;;;;;;;10.21;62.22;97989.80;2218017;80;28842;-71
2021/01/23 13:01:03;;;;;;;14.50;9.43;;;;;;;10.09;61.96;97992.55;2217602;80;27663;-74
2021/01/23 13:04:06;;;;;;;12.93;9.15;;;;;;;10.00;62.18;97991.98;2188931;80;28810;-68
2021/01/23 13:07:08;;;;;;;22.42;15.23;;;;;;;9.92;62.26;97992.62;2217832;80;31610;-74
2021/01/23 13:10:11;;;;;;;13.40;9.30;;;;;;;9.84;62.27;98002.64;2217928;80;33098;-76
2021/01/23 13:13:17;;;;;;;18.95;10.90;;;;;;;9.78;61.94;98008.48;2216199;80;28849;-74
2021/01/23 13:16:20;;;;;;;17.57;10.00;;;;;;;9.71;62.25;98013.50;2218172;80;27642;-69
2021/01/23 13:19:23;;;;;;;13.05;9.68;;;;;;;9.67;62.38;98022.77;2218143;80;28823;-75
2021/01/23 13:22:25;;;;;;;15.68;10.43;;;;;;;9.62;62.33;98026.78;2218016;80;31127;-72
2021/01/23 13:25:27;;;;;;;13.62;8.75;;;;;;;9.59;62.45;98029.23;2213158;80;33066;-77
2021/01/23 13:28:31;;;;;;;11.95;7.97;;;;;;;9.55;62.05;98032.64;2197744;80;30163;-68
2021/01/23 13:31:33;;;;;;;16.82;11.22;;;;;;;9.45;62.06;98041.03;2133388;81;28164;-77
2021/01/23 13:34:35;;;;;;;13.60;9.08;;;;;;;9.33;62.00;98054.94;2143526;83;28868;-68
2021/01/23 13:37:37;;;;;;;16.52;10.40;;;;;;;9.19;62.11;98057.37;2129440;82;32120;-74
2021/01/23 13:40:41;;;;;;;21.70;12.15;;;;;;;9.06;62.20;98056.66;2150620;82;29254;-78
2021/01/23 13:43:43;;;;;;;14.00;7.85;;;;;;;8.94;62.36;98059.81;2150865;82;29803;-77
2021/01/23 13:46:45;;;;;;;12.47;9.55;;;;;;;8.83;62.26;98055.81;2119320;82;27809;-69
2021/01/23 13:49:47;;;;;;;16.87;10.93;;;;;;;8.69;62.31;98068.41;2150014;82;28825;-77
2021/01/23 13:52:49;;;;;;;20.97;12.70;;;;;;;8.57;62.31;98070.23;2176059;81;31260;-76
2021/01/23 13:55:51;;;;;;;13.13;7.85;;;;;;;8.46;62.40;98071.49;2172736;81;32241;-68
2021/01/23 13:58:53;;;;;;;10.08;7.05;;;;;;;8.34;62.25;98061.30;2149507;81;28886;-79
2021/01/23 14:01:55;;;;;;;10.30;8.03;;;;;;;8.19;62.14;98063.31;2149381;82;27779;-77
2021/01/23 14:04:57;;;;;;;12.28;8.18;;;;;;;8.06;62.28;98077.58;2167709;81;28823;-70
2021/01/23 14:07:59;;;;;;;10.78;6.83;;;;;;;7.95;62.57;98093.52;2148680;82;32116;-78
2021/01/23 14:11:02;;;;;;;16.45;9.73;;;;;;;7.84;62.68;98114.33;2174644;80;33981;-76
2021/01/23 14:14:05;;;;;;;21.10;12.88;;;;;;;7.67;63.03;98120.88;2149968;82;27688;-76
2021/01/23 14:17:08;;;;;;;11.55;7.75;;;;;;;7.47;62.91;98128.13;2154804;81;28104;-77
2021/01/23 14:20:12;;;;;;;10.05;6.72;;;;;;;7.22;63.00;98144.05;2149791;82;28892;-72